sensor_id;sensor_type;location;lat;lon;timestamp;pressure;altitude;pressure_sealevel;temperature;humidity
22605;BME280;11469;49.024;8.246;2023-05-19T00:01:11;100954.06;;;11.41;66.33
22605;BME280;11469;49.024;8.246;2023-05-19T00:03:50;100946.69;;;11.36;66.79
22605;BME280;11469;49.024;8.246;2023-05-19T00:06:24;100949.41;;;11.33;67.22
22605;BME280;11469;49.024;8.246;2023-05-19T00:08:56;100952.81;;;11.26;67.85
22605;BME280;11469;49.024;8.246;2023-05-19T00:11:22;100949.44;;;11.20;68.00
22605;BME280;11469;49.024;8.246;2023-05-19T00:13:48;100943.59;;;11.01;69.25
22605;BME280;11469;49.024;8.246;2023-05-19T00:16:15;100950.25;;;11.09;69.05
22605;BME280;11469;49.024;8.246;2023-05-19T00:18:41;100946.97;;;10.94;69.24
22605;BME280;11469;49.024;8.246;2023-05-19T00:21:07;100944.22;;;10.82;69.92
22605;BME280;11469;49.024;8.246;2023-05-19T00:23:33;100949.66;;;10.91;69.73
22605;BME280;11469;49.024;8.246;2023-05-19T00:25:58;100952.34;;;10.87;70.22
22605;BME280;11469;49.024;8.246;2023-05-19T00:28:23;100953.53;;;10.74;70.08
22605;BME280;11469;49.024;8.246;2023-05-19T00:30:50;100960.91;;;10.79;70.56
22605;BME280;11469;49.024;8.246;2023-05-19T00:33:15;100955.41;;;10.82;70.77
22605;BME280;11469;49.024;8.246;2023-05-19T00:35:40;100952.84;;;10.77;70.63
22605;BME280;11469;49.024;8.246;2023-05-19T00:38:06;100947.25;;;10.77;71.07
22605;BME280;11469;49.024;8.246;2023-05-19T00:40:34;100943.03;;;10.71;71.55
22605;BME280;11469;49.024;8.246;2023-05-19T00:43:00;100942.44;;;10.66;71.82
22605;BME280;11469;49.024;8.246;2023-05-19T00:45:26;100939.88;;;10.60;72.04
22605;BME280;11469;49.024;8.246;2023-05-19T00:47:51;100949.78;;;10.58;72.55
22605;BME280;11469;49.024;8.246;2023-05-19T00:50:17;100952.13;;;10.56;72.37
22605;BME280;11469;49.024;8.246;2023-05-19T00:52:43;100942.41;;;10.53;72.61
22605;BME280;11469;49.024;8.246;2023-05-19T00:55:08;100949.41;;;10.47;73.01
22605;BME280;11469;49.024;8.246;2023-05-19T00:57:34;100949.88;;;10.49;73.30
22605;BME280;11469;49.024;8.246;2023-05-19T01:00:00;100946.25;;;10.49;73.66
22605;BME280;11469;49.024;8.246;2023-05-19T01:02:26;100945.31;;;10.45;73.51
22605;BME280;11469;49.024;8.246;2023-05-19T01:04:55;100942.78;;;10.40;74.16
22605;BME280;11469;49.024;8.246;2023-05-19T01:07:21;100942.31;;;10.38;74.16
22605;BME280;11469;49.024;8.246;2023-05-19T01:09:47;100934.94;;;10.33;74.26
22605;BME280;11469;49.024;8.246;2023-05-19T01:12:14;100936.78;;;10.29;74.94
22605;BME280;11469;49.024;8.246;2023-05-19T01:14:40;100932.91;;;10.21;75.96
22605;BME280;11469;49.024;8.246;2023-05-19T01:17:30;100944.06;;;10.09;76.31
22605;BME280;11469;49.024;8.246;2023-05-19T01:20:26;100932.22;;;9.91;77.47
22605;BME280;11469;49.024;8.246;2023-05-19T01:25:41;100932.44;;;9.86;77.13
22605;BME280;11469;49.024;8.246;2023-05-19T01:31:04;100935.53;;;9.73;78.74
22605;BME280;11469;49.024;8.246;2023-05-19T01:33:32;100932.25;;;9.71;78.98
22605;BME280;11469;49.024;8.246;2023-05-19T01:35:59;100933.56;;;9.73;78.94
22605;BME280;11469;49.024;8.246;2023-05-19T01:38:28;100927.13;;;9.73;78.71
22605;BME280;11469;49.024;8.246;2023-05-19T01:40:55;100931.31;;;9.67;79.06
22605;BME280;11469;49.024;8.246;2023-05-19T01:43:23;100930.47;;;9.66;79.13
22605;BME280;11469;49.024;8.246;2023-05-19T01:45:50;100926.72;;;9.62;79.23
22605;BME280;11469;49.024;8.246;2023-05-19T01:48:16;100932.66;;;9.60;79.40
22605;BME280;11469;49.024;8.246;2023-05-19T01:50:42;100937.91;;;9.62;79.59
22605;BME280;11469;49.024;8.246;2023-05-19T01:53:08;100924.63;;;9.59;79.94
22605;BME280;11469;49.024;8.246;2023-05-19T01:55:35;100939.63;;;9.54;79.76
22605;BME280;11469;49.024;8.246;2023-05-19T01:58:30;100947.19;;;9.54;79.70
22605;BME280;11469;49.024;8.246;2023-05-19T02:06:29;100937.13;;;9.41;80.51
22605;BME280;11469;49.024;8.246;2023-05-19T02:11:38;100934.47;;;9.44;80.08
22605;BME280;11469;49.024;8.246;2023-05-19T02:14:20;100938.09;;;9.45;79.83
22605;BME280;11469;49.024;8.246;2023-05-19T02:16:49;100949.63;;;9.43;80.08
22605;BME280;11469;49.024;8.246;2023-05-19T02:19:26;100944.94;;;9.47;79.50
22605;BME280;11469;49.024;8.246;2023-05-19T02:21:52;100945.91;;;9.51;79.16
22605;BME280;11469;49.024;8.246;2023-05-19T02:24:18;100948.09;;;9.46;79.18
22605;BME280;11469;49.024;8.246;2023-05-19T02:26:44;100945.66;;;9.44;79.76
22605;BME280;11469;49.024;8.246;2023-05-19T02:29:10;100953.56;;;9.42;79.65
22605;BME280;11469;49.024;8.246;2023-05-19T02:31:36;100951.94;;;9.41;80.29
22605;BME280;11469;49.024;8.246;2023-05-19T02:34:01;100953.56;;;9.42;80.32
22605;BME280;11469;49.024;8.246;2023-05-19T02:36:26;100953.91;;;9.41;79.77
22605;BME280;11469;49.024;8.246;2023-05-19T02:38:52;100949.13;;;9.41;79.93
22605;BME280;11469;49.024;8.246;2023-05-19T02:41:18;100949.00;;;9.38;80.14
22605;BME280;11469;49.024;8.246;2023-05-19T02:43:43;100945.72;;;9.36;79.99
22605;BME280;11469;49.024;8.246;2023-05-19T02:46:09;100943.75;;;9.36;80.37
22605;BME280;11469;49.024;8.246;2023-05-19T02:48:34;100944.56;;;9.37;80.16
22605;BME280;11469;49.024;8.246;2023-05-19T02:50:59;100939.78;;;9.37;80.28
22605;BME280;11469;49.024;8.246;2023-05-19T02:53:25;100934.88;;;9.34;79.96
22605;BME280;11469;49.024;8.246;2023-05-19T02:55:50;100938.53;;;9.26;80.78
22605;BME280;11469;49.024;8.246;2023-05-19T02:58:16;100940.72;;;9.20;80.92
22605;BME280;11469;49.024;8.246;2023-05-19T03:00:43;100938.25;;;9.19;81.17
22605;BME280;11469;49.024;8.246;2023-05-19T03:03:09;100934.66;;;9.18;81.53
22605;BME280;11469;49.024;8.246;2023-05-19T03:05:34;100934.50;;;9.15;80.96
22605;BME280;11469;49.024;8.246;2023-05-19T03:08:00;100937.84;;;9.08;81.30
22605;BME280;11469;49.024;8.246;2023-05-19T03:10:25;100938.94;;;9.16;81.43
22605;BME280;11469;49.024;8.246;2023-05-19T03:12:51;100938.47;;;9.14;81.59
22605;BME280;11469;49.024;8.246;2023-05-19T03:15:16;100940.44;;;9.13;81.28
22605;BME280;11469;49.024;8.246;2023-05-19T03:17:43;100939.47;;;9.09;81.21
22605;BME280;11469;49.024;8.246;2023-05-19T03:20:09;100937.00;;;9.08;81.47
22605;BME280;11469;49.024;8.246;2023-05-19T03:22:35;100939.34;;;9.06;82.11
22605;BME280;11469;49.024;8.246;2023-05-19T03:25:00;100937.88;;;8.99;82.68
22605;BME280;11469;49.024;8.246;2023-05-19T03:27:26;100937.34;;;9.06;81.95
22605;BME280;11469;49.024;8.246;2023-05-19T03:29:51;100929.50;;;8.99;82.46
22605;BME280;11469;49.024;8.246;2023-05-19T03:32:18;100934.16;;;8.95;81.95
22605;BME280;11469;49.024;8.246;2023-05-19T03:34:43;100932.28;;;8.99;81.97
22605;BME280;11469;49.024;8.246;2023-05-19T03:37:08;100938.03;;;9.03;81.90
22605;BME280;11469;49.024;8.246;2023-05-19T03:39:35;100935.56;;;9.02;82.27
22605;BME280;11469;49.024;8.246;2023-05-19T03:42:00;100933.00;;;8.96;82.93
22605;BME280;11469;49.024;8.246;2023-05-19T03:44:26;100940.09;;;8.94;82.45
22605;BME280;11469;49.024;8.246;2023-05-19T03:46:51;100939.97;;;8.82;83.20
22605;BME280;11469;49.024;8.246;2023-05-19T03:49:16;100944.28;;;8.79;83.62
22605;BME280;11469;49.024;8.246;2023-05-19T03:51:42;100937.03;;;8.78;83.91
22605;BME280;11469;49.024;8.246;2023-05-19T03:54:08;100947.88;;;8.80;83.37
22605;BME280;11469;49.024;8.246;2023-05-19T03:56:37;100948.84;;;8.84;83.48
22605;BME280;11469;49.024;8.246;2023-05-19T03:59:03;100952.94;;;8.86;83.47
22605;BME280;11469;49.024;8.246;2023-05-19T04:01:30;100950.00;;;8.83;83.25
22605;BME280;11469;49.024;8.246;2023-05-19T04:03:55;100951.16;;;8.82;83.32
22605;BME280;11469;49.024;8.246;2023-05-19T04:06:20;100954.78;;;8.82;83.46
22605;BME280;11469;49.024;8.246;2023-05-19T04:08:46;100954.78;;;8.82;83.04
22605;BME280;11469;49.024;8.246;2023-05-19T04:11:11;100952.47;;;8.84;83.03
22605;BME280;11469;49.024;8.246;2023-05-19T04:13:36;100956.56;;;8.87;83.33
22605;BME280;11469;49.024;8.246;2023-05-19T04:16:02;100955.38;;;8.96;82.81
22605;BME280;11469;49.024;8.246;2023-05-19T04:18:28;100947.31;;;8.95;83.06
22605;BME280;11469;49.024;8.246;2023-05-19T04:20:53;100955.00;;;8.98;82.42
22605;BME280;11469;49.024;8.246;2023-05-19T04:23:18;100957.47;;;8.99;82.65
22605;BME280;11469;49.024;8.246;2023-05-19T04:25:44;100953.03;;;8.98;82.45
22605;BME280;11469;49.024;8.246;2023-05-19T04:28:09;100957.47;;;8.99;82.01
22605;BME280;11469;49.024;8.246;2023-05-19T04:30:34;100954.47;;;9.05;82.76
22605;BME280;11469;49.024;8.246;2023-05-19T04:33:01;100959.88;;;9.10;82.35
22605;BME280;11469;49.024;8.246;2023-05-19T04:35:27;100958.22;;;9.09;82.46
22605;BME280;11469;49.024;8.246;2023-05-19T04:37:53;100969.22;;;9.14;82.38
22605;BME280;11469;49.024;8.246;2023-05-19T04:40:18;100968.88;;;9.15;81.63
22605;BME280;11469;49.024;8.246;2023-05-19T04:42:46;100964.59;;;9.18;81.50
22605;BME280;11469;49.024;8.246;2023-05-19T04:45:14;100969.72;;;9.16;81.34
22605;BME280;11469;49.024;8.246;2023-05-19T04:47:40;100972.78;;;9.23;81.54
22605;BME280;11469;49.024;8.246;2023-05-19T04:50:06;100974.91;;;9.26;81.69
22605;BME280;11469;49.024;8.246;2023-05-19T04:52:32;100977.72;;;9.26;81.19
22605;BME280;11469;49.024;8.246;2023-05-19T04:54:57;100974.91;;;9.26;81.23
22605;BME280;11469;49.024;8.246;2023-05-19T04:57:23;100966.81;;;9.33;80.79
22605;BME280;11469;49.024;8.246;2023-05-19T04:59:48;100973.69;;;9.36;80.26
22605;BME280;11469;49.024;8.246;2023-05-19T05:02:14;100973.97;;;9.43;81.26
22605;BME280;11469;49.024;8.246;2023-05-19T05:04:40;100970.94;;;9.48;80.18
22605;BME280;11469;49.024;8.246;2023-05-19T05:07:08;100977.31;;;9.57;80.25
22605;BME280;11469;49.024;8.246;2023-05-19T05:09:34;100966.38;;;9.64;80.44
22605;BME280;11469;49.024;8.246;2023-05-19T05:12:00;100969.66;;;9.66;79.75
22605;BME280;11469;49.024;8.246;2023-05-19T05:14:26;100972.41;;;9.75;80.01
22605;BME280;11469;49.024;8.246;2023-05-19T05:16:52;100966.53;;;9.88;79.53
22605;BME280;11469;49.024;8.246;2023-05-19T05:19:17;100972.97;;;10.01;79.11
22605;BME280;11469;49.024;8.246;2023-05-19T05:21:43;100970.91;;;10.10;77.68
22605;BME280;11469;49.024;8.246;2023-05-19T05:24:10;100969.53;;;10.16;78.20
22605;BME280;11469;49.024;8.246;2023-05-19T05:26:36;100976.00;;;10.29;77.28
22605;BME280;11469;49.024;8.246;2023-05-19T05:29:02;100974.06;;;10.54;76.52
22605;BME280;11469;49.024;8.246;2023-05-19T05:31:28;100973.28;;;10.66;75.58
22605;BME280;11469;49.024;8.246;2023-05-19T05:33:54;100975.28;;;10.77;74.91
22605;BME280;11469;49.024;8.246;2023-05-19T05:36:19;100974.34;;;10.97;74.04
22605;BME280;11469;49.024;8.246;2023-05-19T05:38:44;100962.19;;;11.06;73.40
22605;BME280;11469;49.024;8.246;2023-05-19T05:41:10;100963.69;;;11.15;73.02
22605;BME280;11469;49.024;8.246;2023-05-19T05:43:35;100965.44;;;11.20;73.82
22605;BME280;11469;49.024;8.246;2023-05-19T05:46:00;100963.28;;;11.53;72.28
22605;BME280;11469;49.024;8.246;2023-05-19T05:48:26;100964.78;;;11.63;71.31
22605;BME280;11469;49.024;8.246;2023-05-19T05:50:52;100967.69;;;11.79;70.53
22605;BME280;11469;49.024;8.246;2023-05-19T05:53:19;100960.94;;;11.95;70.08
22605;BME280;11469;49.024;8.246;2023-05-19T05:55:46;100964.31;;;11.61;70.48
22605;BME280;11469;49.024;8.246;2023-05-19T05:58:11;100962.19;;;11.70;69.26
22605;BME280;11469;49.024;8.246;2023-05-19T06:00:40;100959.41;;;11.98;68.47
22605;BME280;11469;49.024;8.246;2023-05-19T06:03:08;100962.88;;;12.07;68.02
22605;BME280;11469;49.024;8.246;2023-05-19T06:05:35;100972.56;;;12.10;67.22
22605;BME280;11469;49.024;8.246;2023-05-19T06:08:00;100959.25;;;11.67;69.00
22605;BME280;11469;49.024;8.246;2023-05-19T06:10:27;100969.59;;;11.90;69.45
22605;BME280;11469;49.024;8.246;2023-05-19T06:12:52;100964.56;;;11.96;68.59
22605;BME280;11469;49.024;8.246;2023-05-19T06:15:18;100960.56;;;11.97;68.86
22605;BME280;11469;49.024;8.246;2023-05-19T06:17:43;100965.63;;;12.19;67.76
22605;BME280;11469;49.024;8.246;2023-05-19T06:20:09;100961.75;;;12.40;67.06
22605;BME280;11469;49.024;8.246;2023-05-19T06:22:34;100959.03;;;12.43;66.23
22605;BME280;11469;49.024;8.246;2023-05-19T06:25:00;100960.47;;;12.21;68.32
22605;BME280;11469;49.024;8.246;2023-05-19T06:27:25;100955.94;;;12.48;67.30
22605;BME280;11469;49.024;8.246;2023-05-19T06:29:51;100967.56;;;12.47;67.07
22605;BME280;11469;49.024;8.246;2023-05-19T06:32:17;100957.22;;;12.51;66.33
22605;BME280;11469;49.024;8.246;2023-05-19T06:34:42;100951.22;;;12.37;67.00
22605;BME280;11469;49.024;8.246;2023-05-19T06:37:07;100956.63;;;12.73;65.86
22605;BME280;11469;49.024;8.246;2023-05-19T06:39:33;100959.25;;;12.66;65.13
22605;BME280;11469;49.024;8.246;2023-05-19T06:41:58;100970.00;;;12.80;64.68
22605;BME280;11469;49.024;8.246;2023-05-19T06:44:24;100963.94;;;12.93;64.21
22605;BME280;11469;49.024;8.246;2023-05-19T06:46:49;100968.56;;;13.02;64.40
22605;BME280;11469;49.024;8.246;2023-05-19T06:49:14;100971.75;;;12.84;65.32
22605;BME280;11469;49.024;8.246;2023-05-19T06:51:40;100968.28;;;13.07;64.25
22605;BME280;11469;49.024;8.246;2023-05-19T06:54:05;100967.66;;;12.98;63.93
22605;BME280;11469;49.024;8.246;2023-05-19T06:56:31;100966.66;;;13.06;64.53
22605;BME280;11469;49.024;8.246;2023-05-19T06:58:56;100966.09;;;12.84;64.74
22605;BME280;11469;49.024;8.246;2023-05-19T07:01:21;100965.75;;;13.02;64.57
22605;BME280;11469;49.024;8.246;2023-05-19T07:03:47;100958.81;;;13.31;63.98
22605;BME280;11469;49.024;8.246;2023-05-19T07:06:12;100957.09;;;13.26;64.56
22605;BME280;11469;49.024;8.246;2023-05-19T07:08:38;100958.19;;;13.56;64.22
22605;BME280;11469;49.024;8.246;2023-05-19T07:11:03;100956.81;;;13.66;63.35
22605;BME280;11469;49.024;8.246;2023-05-19T07:13:29;100963.00;;;13.75;63.36
22605;BME280;11469;49.024;8.246;2023-05-19T07:15:54;100953.66;;;13.71;63.75
22605;BME280;11469;49.024;8.246;2023-05-19T07:18:20;100947.75;;;13.95;63.07
22605;BME280;11469;49.024;8.246;2023-05-19T07:20:46;100946.03;;;13.91;63.42
22605;BME280;11469;49.024;8.246;2023-05-19T07:23:11;100942.56;;;14.17;62.49
22605;BME280;11469;49.024;8.246;2023-05-19T07:25:36;100943.84;;;14.23;62.10
22605;BME280;11469;49.024;8.246;2023-05-19T07:28:02;100939.66;;;13.75;62.32
22605;BME280;11469;49.024;8.246;2023-05-19T07:30:27;100938.56;;;13.79;62.09
22605;BME280;11469;49.024;8.246;2023-05-19T07:32:53;100937.44;;;14.03;61.91
22605;BME280;11469;49.024;8.246;2023-05-19T07:35:19;100934.47;;;14.15;62.17
22605;BME280;11469;49.024;8.246;2023-05-19T07:37:47;100925.34;;;14.03;62.61
22605;BME280;11469;49.024;8.246;2023-05-19T07:40:13;100932.84;;;13.95;62.84
22605;BME280;11469;49.024;8.246;2023-05-19T07:42:38;100931.22;;;13.94;62.69
22605;BME280;11469;49.024;8.246;2023-05-19T07:45:04;100933.28;;;13.97;62.06
22605;BME280;11469;49.024;8.246;2023-05-19T07:47:30;100938.41;;;14.11;61.66
22605;BME280;11469;49.024;8.246;2023-05-19T07:49:55;100937.50;;;14.07;63.23
22605;BME280;11469;49.024;8.246;2023-05-19T07:52:20;100928.50;;;14.20;62.86
22605;BME280;11469;49.024;8.246;2023-05-19T07:54:46;100943.09;;;14.45;63.08
22605;BME280;11469;49.024;8.246;2023-05-19T07:57:11;100932.56;;;14.00;63.22
22605;BME280;11469;49.024;8.246;2023-05-19T07:59:38;100931.06;;;14.06;62.73
22605;BME280;11469;49.024;8.246;2023-05-19T08:02:04;100924.75;;;14.36;63.40
22605;BME280;11469;49.024;8.246;2023-05-19T08:04:29;100922.09;;;14.43;62.11
22605;BME280;11469;49.024;8.246;2023-05-19T08:06:55;100922.69;;;14.52;61.78
22605;BME280;11469;49.024;8.246;2023-05-19T08:09:20;100923.66;;;14.86;61.29
22605;BME280;11469;49.024;8.246;2023-05-19T08:11:45;100917.63;;;15.14;61.54
22605;BME280;11469;49.024;8.246;2023-05-19T08:14:11;100914.97;;;14.98;60.64
22605;BME280;11469;49.024;8.246;2023-05-19T08:16:36;100908.38;;;15.17;59.77
22605;BME280;11469;49.024;8.246;2023-05-19T08:19:02;100912.53;;;14.97;62.06
22605;BME280;11469;49.024;8.246;2023-05-19T08:21:30;100906.22;;;14.80;59.94
22605;BME280;11469;49.024;8.246;2023-05-19T08:23:59;100904.06;;;14.97;61.73
22605;BME280;11469;49.024;8.246;2023-05-19T08:26:25;100908.25;;;15.06;61.13
22605;BME280;11469;49.024;8.246;2023-05-19T08:28:50;100901.56;;;14.91;60.96
22605;BME280;11469;49.024;8.246;2023-05-19T08:31:16;100904.41;;;15.21;61.30
22605;BME280;11469;49.024;8.246;2023-05-19T08:33:42;100896.72;;;15.18;58.77
22605;BME280;11469;49.024;8.246;2023-05-19T08:36:08;100902.72;;;15.43;58.82
22605;BME280;11469;49.024;8.246;2023-05-19T08:38:33;100896.84;;;15.55;58.41
22605;BME280;11469;49.024;8.246;2023-05-19T08:40:58;100900.13;;;15.57;59.07
22605;BME280;11469;49.024;8.246;2023-05-19T08:43:24;100893.72;;;15.34;58.15
22605;BME280;11469;49.024;8.246;2023-05-19T08:45:51;100893.69;;;15.60;58.32
22605;BME280;11469;49.024;8.246;2023-05-19T08:48:18;100897.25;;;15.87;59.09
22605;BME280;11469;49.024;8.246;2023-05-19T08:50:51;100894.25;;;15.73;57.74
22605;BME280;11469;49.024;8.246;2023-05-19T08:53:22;100884.84;;;15.96;58.13
22605;BME280;11469;49.024;8.246;2023-05-19T08:56:03;100884.03;;;15.95;56.46
22605;BME280;11469;49.024;8.246;2023-05-19T08:58:34;100876.88;;;16.08;55.55
22605;BME280;11469;49.024;8.246;2023-05-19T09:01:03;100881.16;;;15.91;56.30
22605;BME280;11469;49.024;8.246;2023-05-19T09:03:31;100877.00;;;15.52;56.88
22605;BME280;11469;49.024;8.246;2023-05-19T09:06:06;100871.50;;;15.96;56.11
22605;BME280;11469;49.024;8.246;2023-05-19T09:08:37;100874.59;;;16.21;54.89
22605;BME280;11469;49.024;8.246;2023-05-19T09:11:02;100872.25;;;15.89;55.62
22605;BME280;11469;49.024;8.246;2023-05-19T09:13:28;100868.88;;;16.17;54.37
22605;BME280;11469;49.024;8.246;2023-05-19T09:15:55;100859.28;;;16.25;55.42
22605;BME280;11469;49.024;8.246;2023-05-19T09:18:20;100862.94;;;16.30;55.19
22605;BME280;11469;49.024;8.246;2023-05-19T09:20:46;100870.13;;;16.20;56.25
22605;BME280;11469;49.024;8.246;2023-05-19T09:23:13;100862.28;;;16.43;54.75
22605;BME280;11469;49.024;8.246;2023-05-19T09:25:49;100853.75;;;16.40;54.13
22605;BME280;11469;49.024;8.246;2023-05-19T09:28:25;100860.09;;;16.70;55.12
22605;BME280;11469;49.024;8.246;2023-05-19T09:31:08;100864.41;;;16.57;54.06
22605;BME280;11469;49.024;8.246;2023-05-19T09:33:37;100859.66;;;16.68;54.00
22605;BME280;11469;49.024;8.246;2023-05-19T09:36:03;100861.31;;;16.73;53.82
22605;BME280;11469;49.024;8.246;2023-05-19T09:38:38;100858.53;;;16.76;54.14
22605;BME280;11469;49.024;8.246;2023-05-19T09:41:05;100859.03;;;16.41;54.74
22605;BME280;11469;49.024;8.246;2023-05-19T09:43:33;100860.16;;;16.77;54.18
22605;BME280;11469;49.024;8.246;2023-05-19T09:46:08;100857.22;;;16.67;53.39
22605;BME280;11469;49.024;8.246;2023-05-19T09:48:36;100856.63;;;16.43;53.77
22605;BME280;11469;49.024;8.246;2023-05-19T09:51:03;100840.97;;;16.60;53.61
22605;BME280;11469;49.024;8.246;2023-05-19T09:53:30;100849.84;;;16.58;54.03
22605;BME280;11469;49.024;8.246;2023-05-19T09:55:57;100845.72;;;16.45;53.06
22605;BME280;11469;49.024;8.246;2023-05-19T09:58:23;100833.78;;;16.66;52.38
22605;BME280;11469;49.024;8.246;2023-05-19T10:00:49;100834.81;;;17.02;52.56
22605;BME280;11469;49.024;8.246;2023-05-19T10:03:15;100827.97;;;17.07;51.09
22605;BME280;11469;49.024;8.246;2023-05-19T10:05:42;100822.84;;;17.27;51.17
22605;BME280;11469;49.024;8.246;2023-05-19T10:08:08;100824.84;;;17.26;50.32
22605;BME280;11469;49.024;8.246;2023-05-19T10:10:36;100827.81;;;17.58;50.68
22605;BME280;11469;49.024;8.246;2023-05-19T10:13:01;100826.53;;;17.38;47.99
22605;BME280;11469;49.024;8.246;2023-05-19T10:15:28;100820.78;;;17.20;47.91
22605;BME280;11469;49.024;8.246;2023-05-19T10:17:55;100824.97;;;17.58;46.27
22605;BME280;11469;49.024;8.246;2023-05-19T10:20:20;100822.06;;;17.37;46.43
22605;BME280;11469;49.024;8.246;2023-05-19T10:22:46;100814.94;;;17.75;46.86
22605;BME280;11469;49.024;8.246;2023-05-19T10:25:13;100818.06;;;17.45;46.95
22605;BME280;11469;49.024;8.246;2023-05-19T10:27:50;100818.59;;;17.79;47.64
22605;BME280;11469;49.024;8.246;2023-05-19T10:30:28;100808.50;;;18.06;45.73
22605;BME280;11469;49.024;8.246;2023-05-19T10:32:55;100810.50;;;17.77;44.93
22605;BME280;11469;49.024;8.246;2023-05-19T10:40:37;100811.38;;;18.13;44.18
22605;BME280;11469;49.024;8.246;2023-05-19T10:43:16;100807.28;;;18.04;44.42
22605;BME280;11469;49.024;8.246;2023-05-19T10:45:53;100811.75;;;18.08;43.99
22605;BME280;11469;49.024;8.246;2023-05-19T10:48:19;100804.44;;;17.86;44.34
22605;BME280;11469;49.024;8.246;2023-05-19T10:50:46;100802.84;;;18.06;44.21
22605;BME280;11469;49.024;8.246;2023-05-19T10:53:15;100806.09;;;17.94;44.54
22605;BME280;11469;49.024;8.246;2023-05-19T10:55:52;100813.94;;;17.28;45.05
22605;BME280;11469;49.024;8.246;2023-05-19T10:58:40;100792.28;;;17.78;45.18
22605;BME280;11469;49.024;8.246;2023-05-19T11:01:14;100803.66;;;18.14;44.94
22605;BME280;11469;49.024;8.246;2023-05-19T11:06:28;100789.06;;;17.83;44.62
22605;BME280;11469;49.024;8.246;2023-05-19T11:11:19;100807.28;;;17.97;45.11
22605;BME280;11469;49.024;8.246;2023-05-19T11:13:46;100789.41;;;17.68;45.78
22605;BME280;11469;49.024;8.246;2023-05-19T11:16:13;100786.19;;;17.76;46.18
22605;BME280;11469;49.024;8.246;2023-05-19T11:18:39;100793.00;;;17.65;45.22
22605;BME280;11469;49.024;8.246;2023-05-19T11:21:04;100785.41;;;17.83;46.18
22605;BME280;11469;49.024;8.246;2023-05-19T11:23:32;100786.25;;;17.94;46.03
22605;BME280;11469;49.024;8.246;2023-05-19T11:26:00;100781.75;;;17.86;46.21
22605;BME280;11469;49.024;8.246;2023-05-19T11:28:26;100777.31;;;18.03;46.05
22605;BME280;11469;49.024;8.246;2023-05-19T11:30:55;100788.66;;;17.92;46.38
22605;BME280;11469;49.024;8.246;2023-05-19T11:33:22;100777.72;;;18.05;46.22
22605;BME280;11469;49.024;8.246;2023-05-19T11:35:55;100779.75;;;18.04;47.11
22605;BME280;11469;49.024;8.246;2023-05-19T11:38:22;100780.97;;;18.21;46.54
22605;BME280;11469;49.024;8.246;2023-05-19T11:40:48;100783.38;;;18.47;46.87
22605;BME280;11469;49.024;8.246;2023-05-19T11:43:16;100784.63;;;18.64;46.09
22605;BME280;11469;49.024;8.246;2023-05-19T11:45:42;100774.91;;;18.65;45.58
22605;BME280;11469;49.024;8.246;2023-05-19T11:48:11;100779.75;;;18.75;45.18
22605;BME280;11469;49.024;8.246;2023-05-19T11:50:39;100774.06;;;18.86;46.14
22605;BME280;11469;49.024;8.246;2023-05-19T11:53:05;100775.69;;;18.87;45.89
22605;BME280;11469;49.024;8.246;2023-05-19T11:55:30;100776.31;;;19.37;45.91
22605;BME280;11469;49.024;8.246;2023-05-19T11:58:00;100781.94;;;19.41;45.26
22605;BME280;11469;49.024;8.246;2023-05-19T12:00:27;100779.72;;;18.89;45.38
22605;BME280;11469;49.024;8.246;2023-05-19T12:02:53;100771.09;;;19.18;44.77
22605;BME280;11469;49.024;8.246;2023-05-19T12:05:20;100774.00;;;19.00;44.66
22605;BME280;11469;49.024;8.246;2023-05-19T12:07:47;100775.56;;;19.19;45.44
22605;BME280;11469;49.024;8.246;2023-05-19T12:10:16;100777.63;;;19.04;44.71
22605;BME280;11469;49.024;8.246;2023-05-19T12:12:41;100775.19;;;19.03;46.10
22605;BME280;11469;49.024;8.246;2023-05-19T12:15:09;100776.34;;;19.23;45.82
22605;BME280;11469;49.024;8.246;2023-05-19T12:17:35;100778.44;;;19.08;45.50
22605;BME280;11469;49.024;8.246;2023-05-19T12:20:01;100779.34;;;18.66;45.25
22605;BME280;11469;49.024;8.246;2023-05-19T12:22:29;100782.59;;;18.61;45.83
22605;BME280;11469;49.024;8.246;2023-05-19T12:24:54;100775.63;;;18.90;45.32
22605;BME280;11469;49.024;8.246;2023-05-19T12:27:23;100778.53;;;18.73;45.86
22605;BME280;11469;49.024;8.246;2023-05-19T12:29:49;100784.56;;;18.93;45.50
22605;BME280;11469;49.024;8.246;2023-05-19T12:32:22;100789.09;;;18.62;45.96
22605;BME280;11469;49.024;8.246;2023-05-19T12:34:48;100787.03;;;18.44;46.46
22605;BME280;11469;49.024;8.246;2023-05-19T12:37:14;100777.72;;;18.72;47.74
22605;BME280;11469;49.024;8.246;2023-05-19T12:39:41;100785.34;;;19.07;47.96
22605;BME280;11469;49.024;8.246;2023-05-19T12:42:07;100776.41;;;19.05;46.75
22605;BME280;11469;49.024;8.246;2023-05-19T12:44:49;100779.28;;;18.91;46.64
22605;BME280;11469;49.024;8.246;2023-05-19T12:47:17;100781.78;;;18.82;47.04
22605;BME280;11469;49.024;8.246;2023-05-19T12:50:16;100780.97;;;18.60;46.40
22605;BME280;11469;49.024;8.246;2023-05-19T12:52:44;100778.94;;;18.46;47.47
22605;BME280;11469;49.024;8.246;2023-05-19T12:55:10;100777.31;;;18.60;47.44
22605;BME280;11469;49.024;8.246;2023-05-19T12:57:37;100775.69;;;18.80;48.54
22605;BME280;11469;49.024;8.246;2023-05-19T13:00:11;100782.97;;;18.84;48.03
22605;BME280;11469;49.024;8.246;2023-05-19T13:02:55;100780.16;;;18.77;47.79
22605;BME280;11469;49.024;8.246;2023-05-19T13:05:21;100777.69;;;18.86;47.93
22605;BME280;11469;49.024;8.246;2023-05-19T13:07:54;100789.00;;;19.04;47.92
22605;BME280;11469;49.024;8.246;2023-05-19T13:10:20;100771.88;;;19.29;47.92
22605;BME280;11469;49.024;8.246;2023-05-19T13:12:46;100777.03;;;19.48;47.10
22605;BME280;11469;49.024;8.246;2023-05-19T13:15:11;100762.41;;;19.50;47.55
22605;BME280;11469;49.024;8.246;2023-05-19T13:17:37;100763.47;;;19.84;46.88